Time;durP1;ratioP1;P1;durP2;ratioP2;P2;SDS_P1;SDS_P2;PMS_P1;PMS_P2;Temp;Humidity;BMP_temperature;BMP_pressure;BME280_temperature;BME280_humidity;BME280_pressure;Samples;Min_cycle;Max_cycle;Signal;HPM_P1;HPM_P2
2023/06/27 00:00:45;;;;;;;4.82;3.03;;;;;;;21.10;67.08;100990.66;4958162;28;20104;-86
2023/06/27 00:03:11;;;;;;;5.05;3.30;;;;;;;21.11;67.54;100981.78;4990711;28;20030;-83
2023/06/27 00:05:37;;;;;;;5.53;3.47;;;;;;;20.83;67.21;100951.81;4958663;28;20053;-84
2023/06/27 00:08:03;;;;;;;6.50;3.50;;;;;;;21.02;67.41;100983.44;4990608;28;20444;-84
2023/06/27 00:10:28;;;;;;;5.53;3.38;;;;;;;21.02;67.23;100974.69;4974723;28;20027;-85
2023/06/27 00:12:56;;;;;;;5.50;3.17;;;;;;;20.79;67.28;100961.75;4990794;28;20085;-84
2023/06/27 00:15:22;;;;;;;4.88;3.20;;;;;;;20.93;67.37;100976.34;4958891;28;20026;-85
2023/06/27 00:17:47;;;;;;;6.03;3.47;;;;;;;20.74;68.11;100969.19;4974614;28;20034;-84
2023/06/27 00:20:13;;;;;;;5.18;3.28;;;;;;;20.59;68.47;100963.47;4974498;28;20026;-84
2023/06/27 00:22:39;;;;;;;4.47;3.22;;;;;;;20.47;69.08;100955.81;4990199;28;20026;-84
2023/06/27 00:25:06;;;;;;;5.55;3.45;;;;;;;20.38;69.29;100951.31;4990618;28;20535;-83
2023/06/27 00:27:32;;;;;;;5.07;3.47;;;;;;;20.38;69.28;100967.09;4990602;28;20023;-84
2023/06/27 00:29:58;;;;;;;7.22;3.53;;;;;;;20.41;69.92;100969.44;4973917;28;20081;-84
2023/06/27 00:32:23;;;;;;;9.15;3.72;;;;;;;20.40;69.26;100973.88;4958249;28;20034;-84
2023/06/27 00:34:49;;;;;;;4.10;3.08;;;;;;;20.28;69.65;100983.63;4974144;28;20041;-84
2023/06/27 00:37:14;;;;;;;5.95;3.58;;;;;;;20.21;69.80;100986.88;4974344;28;20098;-83
2023/06/27 00:39:40;;;;;;;6.30;3.75;;;;;;;20.07;69.99;100971.44;4990182;28;20547;-84
2023/06/27 00:42:06;;;;;;;4.38;3.35;;;;;;;20.19;70.33;100975.69;4974174;28;20034;-84
2023/06/27 00:44:32;;;;;;;5.30;3.17;;;;;;;20.25;70.00;100968.09;4957829;28;20555;-85
2023/06/27 00:46:57;;;;;;;5.30;3.40;;;;;;;20.09;69.76;100941.47;4990582;28;20030;-84
2023/06/27 00:49:23;;;;;;;4.30;2.88;;;;;;;20.08;70.33;100942.44;4974106;28;20030;-84
2023/06/27 00:51:49;;;;;;;5.20;3.45;;;;;;;20.07;70.16;100948.66;4957833;28;20065;-83
2023/06/27 00:54:15;;;;;;;7.53;3.20;;;;;;;20.28;69.88;100973.09;4974191;28;20089;-84
2023/06/27 00:56:41;;;;;;;8.68;3.50;;;;;;;20.21;70.22;100961.44;4957946;28;20077;-84
2023/06/27 00:59:06;;;;;;;5.13;3.65;;;;;;;20.27;69.78;100981.97;4973859;28;20022;-84
2023/06/27 01:01:31;;;;;;;4.75;3.72;;;;;;;20.36;69.84;100963.75;4957850;28;20031;-84
2023/06/27 01:03:57;;;;;;;5.97;3.38;;;;;;;20.33;69.48;100963.03;5006501;28;20424;-84
2023/06/27 01:06:49;;;;;;;7.03;3.75;;;;;;;20.41;69.86;100967.63;4973986;28;20022;-84
2023/06/27 01:09:26;;;;;;;4.97;3.22;;;;;;;20.25;69.53;100952.31;4973910;28;20034;-84
2023/06/27 01:11:57;;;;;;;5.93;3.67;;;;;;;20.37;70.01;100965.41;4974225;28;20084;-84
2023/06/27 01:14:23;;;;;;;5.32;3.15;;;;;;;20.31;69.16;100967.59;4974163;28;20403;-84
2023/06/27 01:16:48;;;;;;;9.70;3.60;;;;;;;20.29;68.53;100961.63;4974334;28;20068;-84
2023/06/27 01:19:14;;;;;;;9.40;3.65;;;;;;;20.42;68.84;100973.72;4990255;28;20030;-84
2023/06/27 01:21:39;;;;;;;5.38;3.30;;;;;;;20.34;69.55;100972.56;4973827;28;20042;-84
2023/06/27 01:24:07;;;;;;;6.00;4.22;;;;;;;20.38;69.98;100974.97;4973875;28;20027;-84
2023/06/27 01:26:33;;;;;;;6.40;4.20;;;;;;;20.38;70.95;100969.72;4989741;28;20026;-84
2023/06/27 01:28:58;;;;;;;7.82;4.30;;;;;;;20.42;69.72;100965.84;4989434;28;20034;-84
2023/06/27 01:31:32;;;;;;;6.10;3.65;;;;;;;20.33;69.16;100957.78;4989679;28;20919;-84
2023/06/27 01:34:08;;;;;;;8.15;4.00;;;;;;;20.34;68.89;100975.19;4991802;28;20038;-85
2023/06/27 01:36:40;;;;;;;6.00;3.60;;;;;;;20.39;68.70;100974.81;4961676;28;20034;-84
2023/06/27 01:39:12;;;;;;;5.55;3.25;;;;;;;20.27;69.40;100958.31;4978040;28;20037;-84
2023/06/27 01:41:38;;;;;;;9.80;3.72;;;;;;;20.15;71.56;100953.22;4993252;28;20038;-84
2023/06/27 01:44:03;;;;;;;4.53;3.40;;;;;;;20.23;70.95;100959.50;4977710;28;20030;-84
2023/06/27 01:46:29;;;;;;;5.22;3.50;;;;;;;20.12;70.63;100940.38;4960781;28;20463;-84
2023/06/27 01:48:54;;;;;;;7.65;3.63;;;;;;;20.35;69.53;100973.41;4961171;28;20037;-84
2023/06/27 01:51:20;;;;;;;5.05;3.78;;;;;;;20.26;69.42;100971.56;4977102;28;20061;-85
2023/06/27 01:53:45;;;;;;;5.53;3.75;;;;;;;20.08;70.63;100950.31;4993425;28;20042;-83
2023/06/27 01:56:12;;;;;;;6.15;3.67;;;;;;;20.41;70.01;100974.69;5009643;28;20023;-84
2023/06/27 01:58:38;;;;;;;6.82;3.88;;;;;;;20.18;69.75;100940.69;4977334;28;20077;-85
2023/06/27 02:01:04;;;;;;;7.80;4.13;;;;;;;20.24;70.48;100970.84;4976861;28;20031;-85
2023/06/27 02:03:29;;;;;;;7.60;4.22;;;;;;;20.22;69.65;100963.09;4993147;28;20030;-84
2023/06/27 02:05:54;;;;;;;4.85;3.33;;;;;;;20.17;69.34;100949.53;4976934;28;20445;-85
2023/06/27 02:08:20;;;;;;;7.68;3.28;;;;;;;20.18;70.04;100960.88;4960842;28;20030;-85
2023/06/27 02:10:45;;;;;;;6.88;4.22;;;;;;;20.10;70.79;100968.56;4976424;28;20110;-84
2023/06/27 02:13:11;;;;;;;5.85;4.05;;;;;;;20.09;70.79;100978.22;4992808;28;20029;-84
2023/06/27 02:15:36;;;;;;;5.78;3.78;;;;;;;20.00;71.46;100969.31;4992986;28;20026;-84
2023/06/27 02:18:04;;;;;;;6.53;3.88;;;;;;;19.94;71.38;100947.97;4992667;28;20038;-84
2023/06/27 02:20:29;;;;;;;6.55;4.20;;;;;;;19.93;70.86;100956.81;4992868;28;20030;-84
2023/06/27 02:22:55;;;;;;;6.32;3.35;;;;;;;19.94;71.04;100959.31;4960443;28;20416;-83
2023/06/27 02:25:20;;;;;;;6.68;4.03;;;;;;;19.97;71.83;100963.50;4976353;28;20030;-84
2023/06/27 02:27:46;;;;;;;6.88;4.25;;;;;;;19.84;70.54;100947.91;4992483;28;20507;-83
2023/06/27 02:30:11;;;;;;;7.97;3.58;;;;;;;19.99;70.51;100977.34;4992496;28;20042;-84
2023/06/27 02:32:37;;;;;;;6.22;3.58;;;;;;;19.95;70.63;100975.91;4992442;28;20034;-84
2023/06/27 02:35:02;;;;;;;5.53;3.70;;;;;;;19.94;70.26;100982.13;4960267;28;20036;-83
2023/06/27 02:37:28;;;;;;;5.95;3.60;;;;;;;19.96;70.15;100967.06;4960243;28;20046;-84
2023/06/27 02:39:54;;;;;;;7.60;3.47;;;;;;;19.84;69.95;100957.59;4992303;28;20377;-83
2023/06/27 02:42:20;;;;;;;6.88;3.95;;;;;;;20.02;70.19;100984.94;4992140;28;20034;-84
2023/06/27 02:44:45;;;;;;;5.15;3.72;;;;;;;19.96;69.83;100982.81;4959779;28;20026;-84
2023/06/27 02:47:11;;;;;;;7.85;3.63;;;;;;;19.74;70.15;100968.84;4976253;28;20033;-86
2023/06/27 02:49:36;;;;;;;4.30;3.28;;;;;;;19.81;71.14;100981.47;4976080;28;20488;-85
2023/06/27 02:52:02;;;;;;;5.68;3.72;;;;;;;19.72;70.77;100976.00;4975867;28;20057;-85
2023/06/27 02:54:27;;;;;;;6.65;4.07;;;;;;;19.77;70.74;100989.59;4975831;28;20030;-85
2023/06/27 02:56:53;;;;;;;7.53;3.97;;;;;;;19.80;71.48;100995.56;4976064;28;20034;-84
2023/06/27 02:59:18;;;;;;;7.88;3.65;;;;;;;19.81;70.05;100986.72;4975802;28;20026;-84
2023/06/27 03:01:43;;;;;;;6.70;3.75;;;;;;;19.83;71.40;100992.69;4959834;28;20038;-84
2023/06/27 03:04:09;;;;;;;5.20;3.40;;;;;;;20.14;70.08;100994.44;4975937;28;20503;-85
2023/06/27 03:06:35;;;;;;;5.88;3.35;;;;;;;20.12;70.87;100977.13;4991699;28;20026;-85
2023/06/27 03:09:00;;;;;;;7.60;3.63;;;;;;;20.37;70.09;100983.81;4975474;28;20049;-84
2023/06/27 03:11:26;;;;;;;5.85;3.90;;;;;;;20.86;68.22;100991.84;4975792;28;20480;-85
2023/06/27 03:13:51;;;;;;;4.07;3.15;;;;;;;21.11;66.70;100987.88;4975504;28;20022;-84
2023/06/27 03:16:17;;;;;;;13.52;4.03;;;;;;;21.71;65.15;100996.59;4975698;28;20034;-84
2023/06/27 03:18:42;;;;;;;7.88;3.88;;;;;;;22.08;63.32;100990.66;4975675;28;21058;-84
2023/06/27 03:21:08;;;;;;;9.95;3.95;;;;;;;22.03;62.64;101008.69;4991474;28;20060;-84
2023/06/27 03:23:33;;;;;;;8.75;3.80;;;;;;;21.82;62.95;101008.81;4958971;28;20035;-84
2023/06/27 03:25:59;;;;;;;8.25;3.88;;;;;;;22.00;62.78;101012.41;4975708;28;20034;-84
2023/06/27 03:28:24;;;;;;;12.32;4.50;;;;;;;22.04;62.20;101010.34;4975478;28;20037;-84
2023/06/27 03:30:49;;;;;;;5.72;3.50;;;;;;;21.83;62.18;101004.38;4991544;28;20034;-84
2023/06/27 03:33:15;;;;;;;6.20;4.18;;;;;;;21.14;64.69;100982.38;4959220;28;20030;-84
2023/06/27 03:35:40;;;;;;;4.68;3.50;;;;;;;20.94;66.08;101000.84;4966363;28;20551;-87
2023/06/27 03:38:06;;;;;;;7.80;4.28;;;;;;;21.01;65.62;101001.97;4974879;28;20519;-89
2023/06/27 03:40:31;;;;;;;5.13;3.20;;;;;;;21.05;65.46;100984.97;4958901;28;20104;-87
2023/06/27 03:42:57;;;;;;;6.70;3.63;;;;;;;21.45;64.93;101009.47;4974804;28;20030;-85
2023/06/27 03:45:22;;;;;;;5.47;3.50;;;;;;;21.46;64.46;101015.56;4991234;28;20481;-84
2023/06/27 03:47:48;;;;;;;7.95;4.10;;;;;;;21.19;65.51;101016.16;4958826;28;20455;-87
2023/06/27 03:50:13;;;;;;;5.40;3.70;;;;;;;20.95;65.85;101010.41;4974715;28;20117;-86
2023/06/27 03:52:39;;;;;;;5.10;3.38;;;;;;;21.21;66.10;101024.75;4958551;28;20050;-87
2023/06/27 03:55:07;;;;;;;14.57;10.90;;;;;;;21.10;65.53;101024.84;4974177;28;20030;-86
2023/06/27 03:57:33;;;;;;;9.73;5.80;;;;;;;21.03;66.06;101015.81;4958043;28;20145;-86
2023/06/27 03:59:59;;;;;;;9.02;5.18;;;;;;;21.14;65.83;101028.91;4958594;28;20507;-86
2023/06/27 04:02:24;;;;;;;7.82;4.35;;;;;;;21.20;65.81;101023.09;4974646;28;20081;-85
2023/06/27 04:04:50;;;;;;;8.50;4.00;;;;;;;21.09;64.49;101020.56;4958427;28;20408;-85
2023/06/27 04:07:15;;;;;;;8.23;4.55;;;;;;;20.93;65.10;101000.00;4980917;28;20029;-86
2023/06/27 04:09:41;;;;;;;5.68;4.22;;;;;;;21.05;66.54;101020.00;5010355;28;20026;-86
2023/06/27 04:12:08;;;;;;;5.50;3.65;;;;;;;20.98;66.54;101012.78;5001208;28;20041;-86
2023/06/27 04:14:34;;;;;;;10.43;5.88;;;;;;;20.84;66.30;101016.56;4990116;28;20061;-87
2023/06/27 04:16:59;;;;;;;26.88;6.78;;;;;;;20.80;66.18;101036.22;4994006;28;20038;-87
2023/06/27 04:19:24;;;;;;;5.78;3.97;;;;;;;20.74;66.44;101027.03;4990713;28;20035;-88
2023/06/27 04:21:50;;;;;;;7.15;3.92;;;;;;;20.45;67.39;101021.66;4990484;28;20045;-90
2023/06/27 04:24:15;;;;;;;11.20;7.72;;;;;;;20.49;68.22;101035.34;4977344;28;20516;-93
2023/06/27 04:26:42;;;;;;;6.90;4.47;;;;;;;20.42;68.40;101037.63;4990705;28;20420;-87
2023/06/27 04:29:08;;;;;;;7.35;4.80;;;;;;;20.42;68.33;101037.63;5006994;28;20428;-89
2023/06/27 04:31:33;;;;;;;4.85;3.58;;;;;;;20.43;68.30;101031.44;4993466;28;20056;-87
2023/06/27 04:33:59;;;;;;;8.77;4.18;;;;;;;20.51;68.50;101030.81;4994475;28;20040;-86
2023/06/27 04:36:27;;;;;;;5.72;3.70;;;;;;;20.56;69.20;101013.69;5009453;28;20038;-87
2023/06/27 04:38:53;;;;;;;5.65;4.05;;;;;;;20.95;67.75;101028.81;5010163;28;20042;-87
2023/06/27 04:41:18;;;;;;;8.00;5.43;;;;;;;21.40;68.08;101038.00;5011369;28;20036;-93
2023/06/27 04:43:44;;;;;;;6.72;4.38;;;;;;;21.38;66.85;101034.66;4973465;28;20058;-88
2023/06/27 04:46:09;;;;;;;12.75;6.90;;;;;;;21.55;67.01;101029.72;4974116;28;20042;-86
2023/06/27 04:48:35;;;;;;;8.23;5.18;;;;;;;21.85;65.79;101040.16;4996319;28;20085;-88
2023/06/27 04:51:00;;;;;;;27.70;18.40;;;;;;;22.46;64.17;101050.41;5014885;28;20049;-88
2023/06/27 04:53:26;;;;;;;12.98;8.30;;;;;;;22.33;63.33;101034.91;4969494;28;20504;-86
2023/06/27 04:55:52;;;;;;;10.50;6.82;;;;;;;22.54;63.89;101045.25;5008704;28;20069;-89
2023/06/27 04:58:18;;;;;;;8.93;5.20;;;;;;;22.39;64.04;101045.84;4974601;28;20122;-91
2023/06/27 05:00:44;;;;;;;8.15;5.45;;;;;;;22.42;64.27;101041.13;4985035;28;20458;-90
2023/06/27 05:03:10;;;;;;;7.43;5.28;;;;;;;22.78;63.27;101044.75;4979020;28;20030;-88
2023/06/27 05:05:36;;;;;;;5.93;4.45;;;;;;;22.79;62.90;101040.31;4973777;28;20415;-90
2023/06/27 05:08:01;;;;;;;6.65;4.80;;;;;;;22.98;62.25;101050.00;4990411;28;20034;-93
2023/06/27 05:10:27;;;;;;;87.68;48.10;;;;;;;22.99;62.60;101044.56;4985164;28;20041;-91
2023/06/27 05:12:52;;;;;;;13.32;7.75;;;;;;;22.85;62.41;101059.06;4997757;28;20099;-90
2023/06/27 05:15:18;;;;;;;9.90;6.53;;;;;;;22.89;62.69;101056.97;5015061;28;20037;-90
2023/06/27 05:17:48;;;;;;;9.10;6.63;;;;;;;22.81;64.56;101054.19;4982737;28;20132;-95
2023/06/27 05:20:14;;;;;;;9.48;6.53;;;;;;;23.04;63.82;101052.06;4976347;28;20029;-86
2023/06/27 05:22:40;;;;;;;10.45;6.05;;;;;;;23.32;63.21;101042.34;5000546;28;20070;-87
2023/06/27 05:25:06;;;;;;;6.28;4.50;;;;;;;23.39;60.64;101038.13;5014442;28;20415;-92
2023/06/27 05:27:31;;;;;;;8.23;5.60;;;;;;;23.41;61.15;101049.41;4999873;28;20037;-92
2023/06/27 05:29:57;;;;;;;6.93;4.88;;;;;;;23.25;61.75;101051.84;4981072;28;20041;-91
2023/06/27 05:32:22;;;;;;;7.65;5.03;;;;;;;23.16;62.16;101049.09;4977903;28;20085;-89
2023/06/27 05:34:48;;;;;;;8.73;5.43;;;;;;;23.15;62.17;101036.88;4975927;28;20022;-91
2023/06/27 05:37:13;;;;;;;6.72;5.13;;;;;;;23.12;62.17;101031.06;4981289;28;20066;-90
2023/06/27 05:39:39;;;;;;;6.43;4.95;;;;;;;23.16;62.01;101035.91;4996773;28;20040;-91
2023/06/27 05:42:04;;;;;;;5.43;4.35;;;;;;;23.23;61.84;101046.72;4996483;28;20032;-87
2023/06/27 05:44:30;;;;;;;7.60;5.03;;;;;;;23.18;62.30;101041.03;5010480;28;20052;-87
2023/06/27 05:46:55;;;;;;;8.68;4.97;;;;;;;23.33;62.17;101049.28;5004647;28;20033;-86
2023/06/27 05:49:20;;;;;;;19.17;6.90;;;;;;;23.16;62.56;101035.91;5012882;28;20061;-87
2023/06/27 05:51:46;;;;;;;8.48;6.35;;;;;;;22.86;62.97;101042.28;4993674;28;20077;-88
2023/06/27 05:54:11;;;;;;;11.18;5.32;;;;;;;22.93;63.45;101031.16;4972602;28;20046;-87
2023/06/27 05:56:38;;;;;;;11.15;7.75;;;;;;;23.12;63.97;101042.47;4992016;28;20045;-88
2023/06/27 05:59:03;;;;;;;8.18;5.10;;;;;;;23.28;62.11;101028.59;5007290;28;20030;-91
2023/06/27 06:01:29;;;;;;;8.70;4.80;;;;;;;23.45;60.98;101042.81;5002184;28;20032;-91
2023/06/27 06:03:54;;;;;;;10.68;4.93;;;;;;;23.61;61.84;101031.66;4979134;28;20029;-89
2023/06/27 06:06:20;;;;;;;6.03;4.10;;;;;;;23.71;60.34;101043.81;5006372;28;20030;-86
2023/06/27 06:08:45;;;;;;;6.57;4.40;;;;;;;23.74;59.81;101048.78;4996183;28;20021;-94
2023/06/27 06:11:11;;;;;;;6.25;4.40;;;;;;;23.68;60.53;101043.25;4980410;28;20026;-90
2023/06/27 06:13:36;;;;;;;5.75;4.22;;;;;;;23.84;58.53;101042.59;4992961;28;20030;-90
2023/06/27 06:16:02;;;;;;;4.97;3.47;;;;;;;23.81;58.12;101049.03;5008634;28;20030;-92
2023/06/27 06:18:28;;;;;;;5.60;4.10;;;;;;;23.86;58.03;101046.75;4993939;28;20032;-85
2023/06/27 06:20:53;;;;;;;5.05;3.60;;;;;;;23.81;58.22;101035.81;4989843;28;20038;-88
2023/06/27 06:23:19;;;;;;;9.32;4.88;;;;;;;23.85;59.35;101038.97;4989062;28;20034;-92
2023/06/27 06:25:44;;;;;;;7.43;4.22;;;;;;;23.99;58.13;101051.63;4992342;28;20048;-86
2023/06/27 06:28:09;;;;;;;8.68;4.63;;;;;;;23.80;58.00;101015.66;5010221;28;20566;-86
2023/06/27 06:30:36;;;;;;;6.15;4.25;;;;;;;24.01;58.31;101044.41;4995592;28;20467;-92
2023/06/27 06:33:01;;;;;;;9.15;4.07;;;;;;;24.02;59.67;101038.97;4996958;28;20036;-91
2023/06/27 06:35:27;;;;;;;6.47;3.85;;;;;;;24.20;58.52;101043.41;4997945;28;20407;-93
2023/06/27 06:37:52;;;;;;;10.38;4.70;;;;;;;24.29;59.20;101045.97;4996889;28;20077;-95
2023/06/27 06:40:18;;;;;;;6.97;4.40;;;;;;;24.44;58.14;101043.59;4976573;28;20088;-90
2023/06/27 06:42:43;;;;;;;10.93;4.78;;;;;;;24.49;58.59;101028.13;5011097;28;20040;-88
2023/06/27 06:45:09;;;;;;;5.72;3.95;;;;;;;24.68;57.15;101037.66;5006987;28;20053;-88
2023/06/27 06:47:35;;;;;;;5.78;3.92;;;;;;;24.69;57.37;101033.19;4984734;28;20424;-88
2023/06/27 06:50:00;;;;;;;7.82;4.05;;;;;;;24.83;55.83;101036.06;4984790;28;20442;-91
2023/06/27 06:52:26;;;;;;;15.48;4.85;;;;;;;24.84;58.31;101035.09;4991706;28;20069;-90
2023/06/27 06:54:51;;;;;;;6.50;4.20;;;;;;;24.92;57.24;101031.66;4956738;28;20050;-94
2023/06/27 06:57:18;;;;;;;7.32;4.47;;;;;;;25.04;55.87;101037.53;4974192;28;20479;-95
2023/06/27 06:59:44;;;;;;;7.30;5.05;;;;;;;25.17;55.89;101041.41;4975445;28;20415;-87
2023/06/27 07:02:09;;;;;;;7.03;4.43;;;;;;;25.02;55.47;101020.97;5005529;28;20026;-94
2023/06/27 07:04:35;;;;;;;8.02;4.50;;;;;;;25.10;55.12;101035.09;4979168;28;20033;-89
2023/06/27 07:07:00;;;;;;;6.78;4.63;;;;;;;25.20;55.91;101029.66;4990922;28;20554;-91
2023/06/27 07:09:27;;;;;;;6.32;4.22;;;;;;;25.24;55.27;101028.34;4974543;28;20037;-88
2023/06/27 07:11:54;;;;;;;9.10;3.78;;;;;;;25.26;55.06;101010.47;4995659;28;20041;-91
2023/06/27 07:14:19;;;;;;;7.03;4.53;;;;;;;25.44;56.86;101028.88;4998697;28;20089;-94
2023/06/27 07:16:45;;;;;;;7.82;4.53;;;;;;;25.65;54.19;101031.09;4979985;28;20034;-93
2023/06/27 07:19:10;;;;;;;7.65;5.20;;;;;;;25.73;54.34;101031.13;4964907;28;20037;-92
2023/06/27 07:21:37;;;;;;;7.30;4.65;;;;;;;25.81;54.50;101039.09;4979310;28;20089;-90
2023/06/27 07:24:04;;;;;;;5.65;3.92;;;;;;;25.94;52.90;101031.47;5011171;28;20029;-91
2023/06/27 07:26:30;;;;;;;7.47;5.18;;;;;;;25.96;54.21;101029.50;4975221;28;20060;-86
2023/06/27 07:28:55;;;;;;;6.22;4.18;;;;;;;26.06;51.92;101028.53;5010323;28;20550;-90
2023/06/27 07:31:21;;;;;;;7.75;4.13;;;;;;;26.10;53.22;101035.13;5011220;28;20029;-90
2023/06/27 07:34:15;;;;;;;5.35;4.00;;;;;;;26.09;51.72;101023.69;4999296;28;20030;-95
2023/06/27 07:39:16;;;;;;;7.07;4.65;;;;;;;25.93;52.65;100991.88;5119002;23;20053;-93
2023/06/27 07:41:41;;;;;;;7.60;4.63;;;;;;;26.34;52.79;101035.09;4977200;28;20022;-92
2023/06/27 07:44:07;;;;;;;6.68;4.05;;;;;;;26.39;49.47;101027.53;4965536;28;20038;-89
2023/06/27 07:46:32;;;;;;;5.32;4.03;;;;;;;26.45;49.46;101024.19;5006655;28;20030;-94
2023/06/27 07:48:59;;;;;;;6.70;4.20;;;;;;;26.49;48.84;101024.69;4976577;28;20030;-92
2023/06/27 07:51:26;;;;;;;4.55;3.63;;;;;;;26.58;48.59;101019.19;4980342;28;20058;-90
2023/06/27 07:53:51;;;;;;;5.43;3.78;;;;;;;26.58;49.13;101015.72;4955037;28;20100;-91
2023/06/27 07:56:17;;;;;;;7.28;3.92;;;;;;;26.64;49.64;101019.50;4968651;28;20038;-89
2023/06/27 07:58:44;;;;;;;5.38;4.15;;;;;;;26.70;48.74;101016.16;4979657;28;20088;-88
2023/06/27 08:01:10;;;;;;;8.30;4.95;;;;;;;26.66;49.91;101012.22;4961222;28;20022;-89
2023/06/27 08:03:35;;;;;;;6.85;4.55;;;;;;;26.81;47.97;101010.50;4989032;28;20051;-88
2023/06/27 08:06:03;;;;;;;7.10;4.32;;;;;;;26.98;48.02;101014.75;5007049;28;20026;-93
2023/06/27 08:08:32;;;;;;;6.30;3.83;;;;;;;27.09;47.60;101022.34;4971330;28;20018;-92
2023/06/27 08:10:57;;;;;;;5.45;3.90;;;;;;;27.00;45.54;101018.03;4965555;28;20030;-88
2023/06/27 08:13:23;;;;;;;5.10;3.80;;;;;;;26.92;46.96;101014.59;4958016;28;20463;-90
2023/06/27 08:15:48;;;;;;;6.80;4.00;;;;;;;26.97;47.47;101002.47;4958064;28;20047;-89
2023/06/27 08:18:14;;;;;;;6.25;4.20;;;;;;;27.21;46.76;101011.34;4990335;28;20022;-85
2023/06/27 08:20:39;;;;;;;6.22;4.10;;;;;;;27.34;47.68;101011.63;4990693;28;20085;-91
2023/06/27 08:23:06;;;;;;;5.25;3.88;;;;;;;27.48;46.78;101010.84;4987085;28;20386;-86
2023/06/27 08:25:31;;;;;;;6.13;4.47;;;;;;;27.62;46.43;101007.44;4969075;28;20165;-86
2023/06/27 08:27:56;;;;;;;6.93;3.80;;;;;;;27.72;45.76;101007.22;4992084;28;20519;-90
2023/06/27 08:30:22;;;;;;;7.05;4.60;;;;;;;27.88;47.51;101019.56;4974460;28;20411;-93
2023/06/27 08:32:47;;;;;;;6.10;3.70;;;;;;;27.87;43.91;100999.31;4962075;28;20038;-86
2023/06/27 08:35:13;;;;;;;5.57;3.65;;;;;;;27.99;44.07;101025.28;4950272;28;20034;-89
2023/06/27 08:37:38;;;;;;;6.50;4.40;;;;;;;27.98;44.63;101020.97;4958047;28;20075;-89
2023/06/27 08:40:05;;;;;;;6.45;4.18;;;;;;;28.15;43.54;101021.69;4990787;28;20034;-92
2023/06/27 08:42:32;;;;;;;10.20;7.50;;;;;;;28.20;44.33;101018.47;4956726;28;20113;-92
2023/06/27 08:45:00;;;;;;;5.47;4.20;;;;;;;28.33;43.47;101024.03;4973587;28;20026;-87
2023/06/27 08:47:27;;;;;;;10.98;7.30;;;;;;;28.31;43.39;101001.25;4990601;28;20030;-87
2023/06/27 08:50:03;;;;;;;7.28;4.38;;;;;;;28.45;43.21;101003.13;4967022;28;20092;-91
2023/06/27 08:52:30;;;;;;;6.70;3.40;;;;;;;28.67;43.60;101017.34;4972362;28;20518;-89
2023/06/27 08:54:57;;;;;;;5.05;3.78;;;;;;;28.49;43.55;101004.41;4952083;28;20058;-88
2023/06/27 08:57:25;;;;;;;6.05;4.00;;;;;;;28.46;42.64;100988.81;4971827;28;20053;-88
2023/06/27 08:59:50;;;;;;;4.70;3.70;;;;;;;28.52;41.54;100980.09;4954650;28;20037;-86
2023/06/27 09:02:15;;;;;;;4.55;3.30;;;;;;;28.68;40.87;101014.50;4970835;28;20435;-88
2023/06/27 09:04:41;;;;;;;5.57;3.88;;;;;;;28.81;42.09;101004.06;4955671;28;20030;-88
2023/06/27 09:07:06;;;;;;;4.25;3.33;;;;;;;28.85;41.33;100999.16;4973792;28;20037;-89
2023/06/27 09:09:32;;;;;;;5.10;3.58;;;;;;;28.81;40.50;101009.38;4973140;28;20033;-91
2023/06/27 09:12:01;;;;;;;6.50;4.40;;;;;;;28.92;42.66;101007.28;4954528;28;20034;-93
2023/06/27 09:14:27;;;;;;;6.90;4.28;;;;;;;29.08;42.49;101007.88;4967004;28;20034;-88
2023/06/27 09:16:53;;;;;;;7.13;3.85;;;;;;;29.13;41.46;101010.00;4992245;28;20515;-89
2023/06/27 09:19:19;;;;;;;7.97;4.13;;;;;;;29.20;41.40;101002.06;4979482;28;20069;-89
2023/06/27 09:21:47;;;;;;;5.78;4.28;;;;;;;29.35;42.18;101010.84;4989877;28;20041;-87
2023/06/27 09:24:13;;;;;;;6.53;3.58;;;;;;;29.34;39.49;100993.22;4978408;28;20038;-91
2023/06/27 09:26:39;;;;;;;5.28;3.42;;;;;;;29.40;40.76;101006.63;4969104;28;20455;-89
2023/06/27 09:32:26;;;;;;;5.13;3.72;;;;;;;29.68;39.35;101000.56;5000592;28;20132;-87
2023/06/27 09:34:51;;;;;;;5.05;3.97;;;;;;;29.87;39.14;101010.56;4973093;28;20496;-88
2023/06/27 09:37:19;;;;;;;6.90;4.65;;;;;;;29.82;38.59;101013.00;4972045;28;20026;-87
2023/06/27 09:39:45;;;;;;;6.70;4.22;;;;;;;30.04;39.17;101020.97;4971833;28;20065;-85
2023/06/27 09:42:10;;;;;;;5.60;4.18;;;;;;;30.03;39.12;101011.34;4971823;28;20042;-88
2023/06/27 09:44:36;;;;;;;4.68;3.63;;;;;;;30.06;37.23;101003.75;4972103;28;20040;-86
2023/06/27 09:47:01;;;;;;;8.63;3.50;;;;;;;30.09;38.66;101007.91;4972588;28;20034;-92
2023/06/27 09:49:30;;;;;;;5.25;3.63;;;;;;;30.17;37.73;101013.09;4975772;28;20034;-93
2023/06/27 09:51:55;;;;;;;7.45;3.55;;;;;;;30.24;36.07;101017.47;4986480;28;20022;-91
2023/06/27 09:54:21;;;;;;;6.32;4.55;;;;;;;30.26;35.14;101019.94;4939698;28;20053;-93
2023/06/27 09:56:50;;;;;;;6.07;3.92;;;;;;;30.38;35.35;101017.56;4965639;28;20026;-92
2023/06/27 09:59:17;;;;;;;6.32;4.30;;;;;;;30.43;36.95;101015.97;4996395;28;20039;-93
2023/06/27 10:01:42;;;;;;;6.22;4.10;;;;;;;30.29;36.73;100992.88;4962975;28;20038;-88
2023/06/27 10:04:08;;;;;;;7.47;4.45;;;;;;;30.29;35.06;101008.91;4984662;28;20042;-94
2023/06/27 10:06:33;;;;;;;6.20;3.85;;;;;;;30.37;34.69;101006.06;4979573;28;20034;-91
2023/06/27 10:08:59;;;;;;;4.80;3.72;;;;;;;30.24;35.94;100995.31;4978542;28;20579;-93
2023/06/27 10:11:25;;;;;;;7.00;4.30;;;;;;;30.45;37.04;100997.06;4965951;28;20026;-92
2023/06/27 10:13:51;;;;;;;5.28;4.00;;;;;;;30.52;36.32;101001.44;4960757;28;20412;-90
2023/06/27 10:16:20;;;;;;;6.65;4.30;;;;;;;30.60;35.65;100989.78;4979877;28;20460;-93
2023/06/27 10:18:47;;;;;;;6.10;4.80;;;;;;;30.77;35.94;100999.13;4965291;28;20130;-93
2023/06/27 10:21:13;;;;;;;5.90;3.97;;;;;;;30.95;35.57;100987.91;4963727;28;20026;-86
2023/06/27 10:23:39;;;;;;;5.75;3.97;;;;;;;31.13;34.71;100985.50;4987690;28;20137;-90
2023/06/27 10:26:08;;;;;;;5.90;4.20;;;;;;;31.17;36.33;100982.41;4973737;28;20069;-90
2023/06/27 10:28:33;;;;;;;8.30;4.43;;;;;;;31.34;35.93;100965.03;4964364;28;20037;-92
2023/06/27 10:30:59;;;;;;;7.75;4.70;;;;;;;31.51;35.87;100982.34;4979770;28;20030;-93
2023/06/27 10:33:31;;;;;;;10.05;4.53;;;;;;;31.42;33.56;100972.84;4986501;28;20117;-86
2023/06/27 10:35:57;;;;;;;;;;;;;;;31.33;33.96;100974.91;4996417;28;20109;-88
2023/06/27 10:38:22;;;;;;;5.65;3.80;;;;;;;31.30;33.49;100959.28;5010859;28;20012;-88
2023/06/27 10:41:00;;;;;;;7.85;6.15;;;;;;;31.35;34.19;100977.34;4990511;28;20038;-90
2023/06/27 10:43:46;;;;;;;6.20;4.22;;;;;;;31.32;33.14;100975.91;4991056;28;20603;-91
2023/06/27 10:46:26;;;;;;;6.10;4.18;;;;;;;31.38;33.65;100971.63;4990621;28;20169;-87
2023/06/27 10:48:53;;;;;;;5.20;4.18;;;;;;;31.44;33.08;100972.66;4987704;28;20037;-86
2023/06/27 10:51:22;;;;;;;6.93;4.72;;;;;;;31.33;33.06;100934.78;4991352;28;20485;-90
2023/06/27 10:54:12;;;;;;;7.05;4.35;;;;;;;31.63;32.46;100970.00;4994766;28;20026;-90
2023/06/27 10:56:41;;;;;;;5.50;4.53;;;;;;;31.63;33.20;100961.97;5008858;28;20129;-88
2023/06/27 10:59:18;;;;;;;5.28;4.00;;;;;;;31.46;31.67;100947.34;4986015;28;20031;-93
2023/06/27 11:02:00;;;;;;;6.03;4.15;;;;;;;31.51;31.51;100933.38;5005487;28;20128;-87
2023/06/27 11:04:26;;;;;;;4.30;3.50;;;;;;;31.79;32.23;100936.72;4982540;28;20046;-88
2023/06/27 11:06:59;;;;;;;6.00;3.92;;;;;;;31.97;31.69;100954.81;4961022;28;20027;-86
2023/06/27 11:09:25;;;;;;;5.03;4.10;;;;;;;31.81;31.87;100944.53;4983107;28;20395;-82
2023/06/27 11:12:11;;;;;;;7.18;4.45;;;;;;;31.97;32.72;100957.47;4982527;28;20034;-84
2023/06/27 11:14:44;;;;;;;4.65;3.90;;;;;;;31.91;33.11;100951.09;4994795;28;20064;-92
2023/06/27 11:17:10;;;;;;;7.15;4.95;;;;;;;31.83;33.00;100937.94;4991539;28;20034;-86
2023/06/27 11:19:38;;;;;;;6.57;4.10;;;;;;;31.63;33.01;100937.91;4951969;28;20023;-87
2023/06/27 11:22:04;;;;;;;6.38;4.35;;;;;;;31.67;33.95;100931.13;4988923;28;20031;-84
2023/06/27 11:24:29;;;;;;;6.53;4.72;;;;;;;31.89;34.10;100929.09;4976932;28;20507;-87
2023/06/27 11:26:56;;;;;;;4.93;4.22;;;;;;;32.21;34.92;100929.22;4976415;28;20660;-93